Time;durP1;ratioP1;P1;durP2;ratioP2;P2;SDS_P1;SDS_P2;PMS_P1;PMS_P2;Temp;Humidity;BMP_temperature;BMP_pressure;BME280_temperature;BME280_humidity;BME280_pressure;Samples;Min_cycle;Max_cycle;Signal;HPM_P1;HPM_P2
2021/09/22 00:01:00;;;;;;;10.50;9.50;;;;;;;9.87;88.02;99902.88;4937113;28;102730;-65
2021/09/22 00:03:29;;;;;;;9.43;8.57;;;;;;;10.01;87.59;99901.31;4928206;28;104047;-65
2021/09/22 00:05:57;;;;;;;8.97;8.17;;;;;;;10.06;87.25;99899.28;4937697;28;103274;-66
2021/09/22 00:08:25;;;;;;;9.00;8.20;;;;;;;9.95;88.00;99904.25;4942162;28;103222;-66
2021/09/22 00:10:55;;;;;;;10.67;9.60;;;;;;;9.74;88.26;99914.97;4933701;28;102725;-66
2021/09/22 00:13:23;;;;;;;11.17;10.17;;;;;;;9.49;90.96;99909.19;4930812;28;102785;-66
2021/09/22 00:15:52;;;;;;;10.83;9.80;;;;;;;9.71;89.55;99907.19;4940765;28;104163;-66
2021/09/22 00:18:20;;;;;;;10.43;9.43;;;;;;;9.69;88.92;99910.84;4943037;28;103233;-67
2021/09/22 00:20:48;;;;;;;10.43;9.50;;;;;;;9.81;88.81;99912.88;4930326;28;103090;-65
2021/09/22 00:23:16;;;;;;;10.83;9.73;;;;;;;9.74;88.26;99904.41;4943795;28;104615;-66
2021/09/22 00:25:44;;;;;;;9.63;8.73;;;;;;;9.75;88.52;99915.81;4942449;28;103298;-66
2021/09/22 00:28:14;;;;;;;10.27;9.27;;;;;;;9.56;89.43;99902.69;4937821;28;103286;-66
2021/09/22 00:30:42;;;;;;;10.97;9.17;;;;;;;9.74;88.76;99906.22;4927969;28;102711;-67
2021/09/22 00:33:10;;;;;;;10.60;9.70;;;;;;;9.63;88.64;99905.88;4943348;28;102763;-66
2021/09/22 00:35:39;;;;;;;10.50;9.50;;;;;;;9.50;89.74;99905.63;4943887;28;104074;-66
2021/09/22 00:38:07;;;;;;;9.80;8.83;;;;;;;9.59;89.46;99897.28;4930069;28;103832;-66
2021/09/22 00:40:36;;;;;;;7.80;7.10;;;;;;;9.73;89.32;99905.38;4942341;28;103663;-66
2021/09/22 00:43:04;;;;;;;7.73;7.03;;;;;;;9.95;87.81;99899.00;4939866;28;103247;-66
2021/09/22 00:45:34;;;;;;;7.23;6.63;;;;;;;10.04;86.48;99904.66;4941076;28;104540;-66
2021/09/22 00:48:02;;;;;;;8.37;7.57;;;;;;;9.93;86.42;99895.56;4930074;28;103218;-65
2021/09/22 00:50:36;;;;;;;9.80;8.57;;;;;;;9.84;86.88;99903.03;4933008;28;102681;-65
2021/09/22 00:53:05;;;;;;;10.20;9.27;;;;;;;9.72;86.73;99900.16;4930076;28;102722;-65
2021/09/22 00:55:33;;;;;;;9.77;8.80;;;;;;;9.78;87.23;99905.97;4944092;28;104079;-65
2021/09/22 00:58:15;;;;;;;11.37;10.30;;;;;;;9.69;86.98;99897.66;4930261;28;103400;-65
2021/09/22 01:00:45;;;;;;;11.20;10.10;;;;;;;9.62;88.02;99902.41;4926676;28;102847;-67
2021/09/22 01:03:13;;;;;;;8.90;8.07;;;;;;;9.63;87.84;99898.81;4925760;28;102960;-65
2021/09/22 01:05:44;;;;;;;10.40;9.33;;;;;;;9.64;87.44;99902.31;4926416;28;103199;-66
2021/09/22 01:08:15;;;;;;;9.57;8.77;;;;;;;9.64;87.70;99895.25;4930352;28;103234;-66
2021/09/22 01:10:45;;;;;;;12.13;9.97;;;;;;;9.40;89.21;99900.88;4939746;28;103375;-66
2021/09/22 01:13:14;;;;;;;9.90;8.90;;;;;;;9.20;90.82;99909.75;4931216;28;102818;-66
2021/09/22 01:15:44;;;;;;;11.23;10.20;;;;;;;8.98;91.30;99909.91;4931647;28;103759;-66
2021/09/22 01:18:16;;;;;;;9.70;8.80;;;;;;;9.04;91.38;99914.06;4939380;28;103257;-66
2021/09/22 01:20:46;;;;;;;9.40;8.43;;;;;;;9.23;90.47;99904.34;4946330;28;102874;-66
2021/09/22 01:23:19;;;;;;;11.63;10.47;;;;;;;9.09;90.29;99912.91;4925690;28;102737;-67
2021/09/22 01:25:51;;;;;;;11.53;10.43;;;;;;;8.85;91.60;99913.19;4931737;28;103208;-67
2021/09/22 01:28:24;;;;;;;9.77;8.77;;;;;;;8.77;93.35;99920.59;4944225;28;103246;-65
2021/09/22 01:30:54;;;;;;;10.60;9.60;;;;;;;8.88;92.84;99918.31;4926390;28;102641;-66
2021/09/22 01:33:25;;;;;;;10.67;9.63;;;;;;;8.96;92.62;99924.06;4928334;28;102833;-65
2021/09/22 01:36:00;;;;;;;11.47;10.43;;;;;;;8.89;93.14;99926.16;4941906;28;103339;-66
2021/09/22 01:38:31;;;;;;;8.67;7.97;;;;;;;9.10;92.64;99908.47;4930885;28;103343;-66
2021/09/22 01:41:11;;;;;;;10.87;9.77;;;;;;;9.08;91.01;99905.91;4926022;28;102704;-65
2021/09/22 01:43:47;;;;;;;12.60;11.30;;;;;;;8.80;92.66;99915.19;4929159;28;102748;-67
2021/09/22 01:46:19;;;;;;;12.27;11.07;;;;;;;8.89;94.00;99920.03;4926663;28;104110;-66
2021/09/22 01:48:50;;;;;;;8.97;8.17;;;;;;;9.11;92.83;99918.09;4932062;28;103315;-66
2021/09/22 01:51:18;;;;;;;10.47;9.47;;;;;;;9.26;91.18;99920.03;4938869;28;102682;-66
2021/09/22 01:54:07;;;;;;;9.07;8.17;;;;;;;9.36;90.20;99923.91;4944571;28;102777;-66
2021/09/22 01:56:38;;;;;;;10.17;9.27;;;;;;;9.36;89.47;99916.00;4926558;28;103497;-66
2021/09/22 01:59:08;;;;;;;10.30;9.40;;;;;;;9.27;89.48;99913.81;4932383;28;103230;-66
2021/09/22 02:01:54;;;;;;;9.80;8.80;;;;;;;9.13;90.14;99913.59;4936044;28;102766;-66
2021/09/22 02:04:35;;;;;;;9.60;8.70;;;;;;;9.14;90.00;99910.03;4927170;28;102725;-67
2021/09/22 02:07:07;;;;;;;11.23;9.43;;;;;;;8.99;90.09;99913.41;4931129;28;105107;-66
2021/09/22 02:09:37;;;;;;;10.97;9.90;;;;;;;8.70;91.43;99915.59;4932271;28;103453;-65
2021/09/22 02:12:08;;;;;;;9.53;8.63;;;;;;;8.79;91.76;99909.03;4932292;28;102705;-65
2021/09/22 02:14:36;;;;;;;11.47;10.40;;;;;;;8.69;91.55;99903.38;4932264;28;104183;-66
2021/09/22 02:17:07;;;;;;;12.83;9.47;;;;;;;8.91;91.46;99891.81;4929292;28;104232;-66
2021/09/22 02:19:37;;;;;;;11.70;10.63;;;;;;;8.75;91.99;99896.97;4938854;28;103234;-66
2021/09/22 02:22:25;;;;;;;9.23;8.33;;;;;;;8.90;91.82;99895.41;4938022;28;103301;-67
2021/09/22 02:25:05;;;;;;;9.13;7.97;;;;;;;9.09;90.69;99888.31;4925208;28;103771;-66
2021/09/22 02:27:34;;;;;;;10.93;9.43;;;;;;;9.12;88.72;99890.81;4933401;28;103734;-66
2021/09/22 02:30:07;;;;;;;11.00;9.93;;;;;;;8.93;89.89;99906.63;4933148;28;103210;-67
2021/09/22 02:32:38;;;;;;;10.50;9.60;;;;;;;8.57;92.02;99903.91;4926819;28;102831;-66
2021/09/22 02:35:08;;;;;;;10.50;9.60;;;;;;;8.64;93.05;99902.72;4923853;28;102690;-65
2021/09/22 02:37:56;;;;;;;10.33;9.43;;;;;;;8.80;91.69;99899.38;4933422;28;103095;-65
2021/09/22 02:40:47;;;;;;;10.80;9.80;;;;;;;8.78;91.71;99902.09;4939865;28;103848;-66
2021/09/22 02:43:22;;;;;;;7.10;6.50;;;;;;;8.99;91.60;99894.94;4936073;28;102763;-66
2021/09/22 02:45:51;;;;;;;8.20;7.50;;;;;;;9.14;90.14;99891.59;4935130;28;103245;-67
2021/09/22 02:48:23;;;;;;;11.00;9.70;;;;;;;8.90;89.22;99890.13;4929681;28;103581;-67
2021/09/22 02:50:52;;;;;;;12.73;10.50;;;;;;;8.80;91.64;99883.56;4940028;28;103364;-67
2021/09/22 02:53:20;;;;;;;11.27;10.20;;;;;;;8.87;91.16;99885.81;4940528;28;103837;-67
2021/09/22 02:55:50;;;;;;;12.83;11.40;;;;;;;8.58;91.88;99884.56;4928783;28;102802;-66
2021/09/22 02:58:18;;;;;;;11.80;10.70;;;;;;;8.38;93.70;99884.59;4942101;28;102848;-66
2021/09/22 03:00:49;;;;;;;13.03;11.43;;;;;;;8.39;95.21;99883.69;4934021;28;102661;-65
2021/09/22 03:03:18;;;;;;;11.70;10.70;;;;;;;8.28;94.64;99890.34;4933128;28;104507;-66
2021/09/22 03:05:47;;;;;;;11.43;10.33;;;;;;;8.32;95.32;99892.75;4927763;28;102713;-66
2021/09/22 03:08:15;;;;;;;9.63;8.63;;;;;;;8.56;94.66;99891.66;4939259;28;104097;-66
2021/09/22 03:10:43;;;;;;;8.90;8.00;;;;;;;8.73;92.90;99894.38;4941444;28;103006;-65
2021/09/22 03:13:13;;;;;;;8.77;7.97;;;;;;;8.83;91.19;99883.41;4927759;28;103280;-65
2021/09/22 03:15:41;;;;;;;8.30;7.50;;;;;;;8.88;90.13;99876.16;4937451;28;102786;-65
2021/09/22 03:18:09;;;;;;;8.77;7.87;;;;;;;8.73;90.05;99889.09;4892965;28;103262;-65
2021/09/22 03:20:38;;;;;;;10.30;9.20;;;;;;;8.74;89.73;99880.28;4919517;28;103186;-65
2021/09/22 03:23:06;;;;;;;10.40;9.30;;;;;;;8.74;89.11;99880.28;4920410;28;103139;-65
2021/09/22 03:25:37;;;;;;;7.80;7.07;;;;;;;8.80;88.97;99868.59;4929472;28;103879;-65
2021/09/22 03:28:05;;;;;;;7.10;6.50;;;;;;;8.88;88.76;99870.88;4917793;28;105196;-65
2021/09/22 03:30:40;;;;;;;10.47;9.40;;;;;;;8.71;89.34;99883.06;4922406;28;103411;-65
2021/09/22 03:33:13;;;;;;;11.77;10.57;;;;;;;8.21;92.95;99892.34;4922688;28;102917;-66
2021/09/22 03:35:43;;;;;;;12.47;11.13;;;;;;;7.85;94.97;99901.84;4912315;28;104575;-65
2021/09/22 03:38:12;;;;;;;12.10;10.90;;;;;;;7.61;97.55;99906.34;4919251;28;102755;-65
2021/09/22 03:40:40;;;;;;;12.40;11.20;;;;;;;7.54;98.54;99907.53;4918692;28;103233;-66
2021/09/22 03:43:09;;;;;;;13.17;11.80;;;;;;;7.62;99.54;99908.06;4926774;28;102626;-66
2021/09/22 03:45:39;;;;;;;13.63;12.33;;;;;;;7.50;99.52;99908.53;4939027;28;102637;-66
2021/09/22 03:48:07;;;;;;;13.00;11.63;;;;;;;7.55;99.65;99909.25;4920898;28;104387;-66
2021/09/22 03:50:37;;;;;;;12.77;11.57;;;;;;;7.63;100.00;99912.41;4922010;28;103937;-67
2021/09/22 03:53:28;;;;;;;12.90;11.57;;;;;;;7.51;99.94;99908.50;4930594;28;102814;-68
2021/09/22 03:55:56;;;;;;;14.43;12.93;;;;;;;7.53;99.80;99921.56;4939748;28;102693;-67
2021/09/22 03:58:25;;;;;;;13.50;12.20;;;;;;;7.48;100.00;99927.03;4929782;28;103556;-67
2021/09/22 04:00:55;;;;;;;13.97;12.03;;;;;;;7.29;100.00;99925.19;4927218;28;103135;-67
2021/09/22 04:03:23;;;;;;;14.80;13.27;;;;;;;7.34;100.00;99925.88;4924905;28;103750;-67
2021/09/22 04:05:51;;;;;;;13.43;12.13;;;;;;;7.44;100.00;99927.19;4927190;28;102762;-67
2021/09/22 04:08:20;;;;;;;11.83;10.63;;;;;;;7.71;100.00;99935.75;4927965;28;104171;-66
2021/09/22 04:10:50;;;;;;;9.83;8.83;;;;;;;7.90;98.37;99926.16;4928335;28;103125;-67
2021/09/22 04:13:18;;;;;;;10.03;9.13;;;;;;;8.11;97.63;99920.00;4927623;28;102718;-67
2021/09/22 04:15:51;;;;;;;13.10;11.90;;;;;;;8.09;96.76;99919.19;4930363;28;104060;-67
2021/09/22 04:18:22;;;;;;;13.17;11.87;;;;;;;7.99;98.05;99917.91;4931638;28;105297;-68
2021/09/22 04:20:51;;;;;;;11.63;10.57;;;;;;;8.02;98.29;99917.78;4935727;28;103058;-67
2021/09/22 04:23:22;;;;;;;12.17;10.97;;;;;;;8.04;97.54;99929.06;4933137;28;102687;-70
2021/09/22 04:25:50;;;;;;;12.93;11.57;;;;;;;8.03;97.95;99922.09;4941891;28;102880;-66
2021/09/22 04:28:19;;;;;;;13.87;11.00;;;;;;;8.07;97.15;99928.94;4925538;28;103406;-65
2021/09/22 04:31:05;;;;;;;11.63;10.43;;;;;;;8.07;96.98;99923.69;4943498;28;103161;-74
2021/09/22 04:33:54;;;;;;;12.67;11.47;;;;;;;7.96;97.16;99932.03;4944143;28;103079;-76
2021/09/22 04:36:41;;;;;;;11.93;10.53;;;;;;;8.01;97.74;99931.84;4938937;28;102675;-66
2021/09/22 04:39:28;;;;;;;12.00;10.90;;;;;;;7.94;98.01;99933.03;4936807;28;103368;-65
2021/09/22 04:42:15;;;;;;;12.40;11.10;;;;;;;7.91;98.29;99931.38;4940923;28;103192;-75
2021/09/22 04:45:02;;;;;;;10.57;9.53;;;;;;;7.99;97.63;99931.06;4941769;28;103204;-76
2021/09/22 04:47:49;;;;;;;11.97;10.87;;;;;;;7.90;98.27;99926.16;4940568;28;102733;-75
2021/09/22 04:50:38;;;;;;;11.27;10.27;;;;;;;7.90;98.11;99923.53;4939540;28;103723;-65
2021/09/22 04:53:24;;;;;;;12.93;11.67;;;;;;;7.85;98.14;99917.63;4941222;28;103292;-75
2021/09/22 04:56:14;;;;;;;13.27;11.97;;;;;;;7.69;97.97;99914.75;4918061;28;102791;-66
2021/09/22 04:59:01;;;;;;;12.67;11.37;;;;;;;7.83;98.30;99930.00;4944300;28;102748;-66
2021/09/22 05:01:48;;;;;;;13.10;11.80;;;;;;;7.51;100.00;99929.53;4941638;28;103048;-74
2021/09/22 05:04:36;;;;;;;12.27;11.17;;;;;;;7.52;100.00;99919.88;4932800;28;103209;-66
2021/09/22 05:07:24;;;;;;;12.47;11.17;;;;;;;7.37;100.00;99931.88;4941062;28;102724;-66
2021/09/22 05:10:12;;;;;;;11.13;10.13;;;;;;;7.58;100.00;99920.47;4937921;28;104237;-73
2021/09/22 05:13:04;;;;;;;13.47;12.17;;;;;;;7.46;100.00;99934.13;4901370;28;103216;-74
2021/09/22 05:15:51;;;;;;;11.73;10.53;;;;;;;7.53;100.00;99925.06;4938587;28;103221;-66
2021/09/22 05:18:38;;;;;;;15.50;13.97;;;;;;;7.21;100.00;99930.78;4938722;28;103004;-67
2021/09/22 05:21:25;;;;;;;13.00;11.63;;;;;;;7.37;100.00;99931.00;4940331;28;102740;-74
2021/09/22 05:24:13;;;;;;;10.13;9.13;;;;;;;7.74;100.00;99925.09;4939489;28;104058;-75
2021/09/22 05:27:17;;;;;;;9.60;8.77;;;;;;;7.98;100.00;99931.97;4856088;28;103257;-75
2021/09/22 05:30:06;;;;;;;11.97;10.80;;;;;;;7.96;97.15;99928.56;4933411;28;102852;-74
2021/09/22 05:32:52;;;;;;;12.97;11.60;;;;;;;7.62;98.10;99941.38;4939376;28;102811;-74
2021/09/22 05:35:55;;;;;;;12.63;11.43;;;;;;;7.69;99.79;99932.34;4939320;28;103066;-74
2021/09/22 05:38:42;;;;;;;11.80;10.50;;;;;;;7.76;99.79;99934.66;4935867;28;103147;-74
2021/09/22 05:41:29;;;;;;;13.83;12.43;;;;;;;7.74;99.57;99936.50;4943137;28;103282;-67
2021/09/22 05:44:17;;;;;;;14.30;12.87;;;;;;;7.53;100.00;99938.22;4941973;28;102782;-67
2021/09/22 05:47:04;;;;;;;14.90;13.33;;;;;;;7.45;100.00;99939.44;4941622;28;103332;-66
2021/09/22 05:49:51;;;;;;;14.43;12.93;;;;;;;7.36;100.00;99932.78;4941152;28;103173;-66
2021/09/22 05:52:38;;;;;;;13.23;11.93;;;;;;;7.37;100.00;99942.38;4939538;28;103830;-66
2021/09/22 05:55:25;;;;;;;15.20;13.30;;;;;;;7.49;100.00;99943.69;4930503;28;102644;-68
2021/09/22 05:58:15;;;;;;;13.40;12.00;;;;;;;7.76;100.00;99936.41;4942885;28;103186;-68
2021/09/22 06:01:02;;;;;;;12.23;11.03;;;;;;;7.96;100.00;99941.72;4937897;28;103364;-67
2021/09/22 06:03:49;;;;;;;14.73;13.20;;;;;;;7.80;100.00;99943.28;4936498;28;102884;-68
2021/09/22 06:06:50;;;;;;;15.33;13.13;;;;;;;7.95;100.00;99939.97;4893321;28;102806;-68
2021/09/22 06:09:54;;;;;;;15.30;13.70;;;;;;;8.02;100.00;99946.72;4875299;28;103339;-68
2021/09/22 06:12:41;;;;;;;12.13;10.93;;;;;;;8.40;100.00;99943.31;4924280;28;103241;-74
2021/09/22 06:15:11;;;;;;;14.50;12.80;;;;;;;8.57;100.00;99943.44;4941574;28;102623;-74
2021/09/22 06:17:40;;;;;;;13.20;11.90;;;;;;;8.73;100.00;99936.53;4925755;28;102869;-73
2021/09/22 06:20:11;;;;;;;17.03;14.63;;;;;;;8.77;99.99;99939.03;4929230;28;102737;-73
2021/09/22 06:22:39;;;;;;;17.07;15.20;;;;;;;8.87;100.00;99938.53;4937387;28;103015;-72
2021/09/22 06:25:08;;;;;;;16.53;14.93;;;;;;;8.83;100.00;99930.84;4935921;28;103040;-73
2021/09/22 06:27:38;;;;;;;15.87;14.27;;;;;;;8.88;100.00;99931.50;4937116;28;102841;-73
2021/09/22 06:30:08;;;;;;;16.53;14.63;;;;;;;9.20;99.88;99933.50;4924576;28;103365;-74
2021/09/22 06:32:40;;;;;;;12.23;11.03;;;;;;;9.58;98.51;99921.09;4927494;28;103161;-74
2021/09/22 06:35:11;;;;;;;21.60;14.37;;;;;;;9.14;100.00;99941.69;4941188;28;102764;-73
2021/09/22 06:38:00;;;;;;;14.63;13.13;;;;;;;9.39;100.00;99941.38;4941083;28;102767;-73
2021/09/22 06:40:34;;;;;;;11.90;10.77;;;;;;;9.78;98.83;99942.94;4925776;28;103273;-74
2021/09/22 06:43:04;;;;;;;14.37;12.23;;;;;;;10.07;95.30;99941.47;4921276;28;105708;-67
2021/09/22 06:45:33;;;;;;;11.37;10.27;;;;;;;10.32;93.46;99946.38;4925606;28;102817;-67
2021/09/22 06:48:03;;;;;;;10.83;9.83;;;;;;;10.54;92.71;99941.69;4933020;28;102733;-65
2021/09/22 06:50:31;;;;;;;16.13;11.70;;;;;;;10.75;91.15;99945.00;4927534;28;104073;-66
2021/09/22 06:52:59;;;;;;;11.67;10.57;;;;;;;10.88;90.38;99948.69;4940598;28;103333;-66
2021/09/22 06:55:28;;;;;;;11.13;9.93;;;;;;;11.07;89.43;99946.75;4934637;28;102955;-67
2021/09/22 06:57:56;;;;;;;13.90;12.53;;;;;;;11.17;88.57;99944.47;4936683;28;102989;-67
2021/09/22 07:00:24;;;;;;;17.33;13.80;;;;;;;11.35;87.95;99952.22;4936981;28;103449;-66
2021/09/22 07:02:52;;;;;;;14.37;13.00;;;;;;;11.30;89.09;99948.13;4931524;28;103380;-67
2021/09/22 07:05:22;;;;;;;15.20;13.20;;;;;;;11.57;87.01;99957.16;4937534;28;102791;-66
2021/09/22 07:07:51;;;;;;;15.90;13.40;;;;;;;10.83;89.90;99959.50;4938694;28;102836;-66
2021/09/22 07:10:19;;;;;;;18.10;14.23;;;;;;;10.97;90.31;99958.78;4937762;28;103939;-66
2021/09/22 07:12:49;;;;;;;12.37;11.17;;;;;;;11.45;89.11;99960.50;4937023;28;103226;-73
2021/09/22 07:15:17;;;;;;;15.07;13.53;;;;;;;11.71;87.44;99959.91;4938060;28;102593;-72
2021/09/22 07:17:45;;;;;;;16.80;15.03;;;;;;;11.79;86.48;99962.94;4936208;28;102692;-73
2021/09/22 07:20:14;;;;;;;19.47;15.97;;;;;;;10.62;90.26;99971.22;4924401;28;104004;-71
2021/09/22 07:22:43;;;;;;;19.73;14.60;;;;;;;11.03;91.17;99975.13;4920172;28;103116;-73
2021/09/22 07:25:12;;;;;;;14.23;12.83;;;;;;;11.89;86.88;99964.16;4937414;28;102707;-73
2021/09/22 07:27:41;;;;;;;12.97;11.67;;;;;;;12.30;84.49;99969.66;4937275;28;102966;-73
2021/09/22 07:30:13;;;;;;;18.47;16.63;;;;;;;11.86;84.00;99964.31;4925057;28;103987;-72
2021/09/22 07:32:42;;;;;;;18.07;16.17;;;;;;;12.10;84.81;99967.31;4947446;28;103244;-72
2021/09/22 07:35:11;;;;;;;19.37;15.60;;;;;;;12.26;84.30;99972.59;4935757;28;102693;-72
2021/09/22 07:37:39;;;;;;;13.23;11.93;;;;;;;12.68;83.11;99967.38;4935415;28;103056;-72
2021/09/22 07:40:11;;;;;;;15.67;13.73;;;;;;;13.07;80.85;99972.91;4936773;28;103082;-65
2021/09/22 07:42:39;;;;;;;17.70;16.00;;;;;;;12.97;78.37;99976.19;4937118;28;103460;-66
2021/09/22 07:45:08;;;;;;;18.13;16.37;;;;;;;12.87;79.42;99970.59;4938813;28;102721;-66
2021/09/22 07:47:36;;;;;;;16.77;14.93;;;;;;;13.35;79.96;99970.22;4937571;28;104386;-66
2021/09/22 07:50:08;;;;;;;19.03;17.00;;;;;;;12.96;79.78;99970.03;4928633;28;103244;-66
2021/09/22 07:52:36;;;;;;;17.20;15.50;;;;;;;13.88;78.99;99971.19;4937147;28;103306;-67
2021/09/22 07:55:05;;;;;;;13.43;12.13;;;;;;;14.45;76.22;99962.00;4940778;28;102710;-66
2021/09/22 07:57:35;;;;;;;17.53;15.07;;;;;;;14.29;75.92;99969.25;4933242;28;103257;-72
2021/09/22 08:00:05;;;;;;;16.23;14.27;;;;;;;14.90;74.41;99962.44;4936321;28;103244;-72
2021/09/22 08:02:39;;;;;;;14.03;12.47;;;;;;;15.56;72.76;99957.63;4937057;28;103229;-72
2021/09/22 08:05:10;;;;;;;15.20;13.70;;;;;;;15.26;72.00;99954.50;4938729;28;102674;-72
2021/09/22 08:07:45;;;;;;;13.37;12.07;;;;;;;15.92;72.30;99963.84;4936383;28;102741;-73
2021/09/22 08:10:14;;;;;;;15.97;14.43;;;;;;;16.31;67.96;99955.53;4928209;28;103330;-73
2021/09/22 08:12:46;;;;;;;14.03;12.73;;;;;;;16.18;69.53;99962.75;4937728;28;103220;-66
2021/09/22 08:15:15;;;;;;;15.83;13.97;;;;;;;16.45;67.44;99963.31;4925876;28;103077;-72
2021/09/22 08:17:44;;;;;;;16.10;14.27;;;;;;;15.89;67.10;99964.94;4931293;28;103061;-72
2021/09/22 08:20:14;;;;;;;16.47;14.30;;;;;;;15.51;70.30;99959.78;4939603;28;103365;-72
2021/09/22 08:22:43;;;;;;;16.80;15.23;;;;;;;16.34;67.26;99957.97;4938173;28;103260;-71
2021/09/22 08:25:11;;;;;;;14.90;13.30;;;;;;;16.52;67.98;99953.91;4925344;28;102766;-71
2021/09/22 08:27:40;;;;;;;16.30;14.70;;;;;;;16.30;69.92;99963.66;4938415;28;104044;-67
2021/09/22 08:30:11;;;;;;;14.63;13.27;;;;;;;16.87;67.46;99958.34;4940753;28;103239;-66
2021/09/22 08:32:40;;;;;;;13.40;12.00;;;;;;;16.71;66.89;99958.69;4940421;28;103073;-66
2021/09/22 08:35:09;;;;;;;13.60;12.27;;;;;;;17.14;66.12;99958.84;4940974;28;102621;-71
2021/09/22 08:37:38;;;;;;;10.97;9.97;;;;;;;17.58;64.67;99964.16;4940078;28;103951;-71
2021/09/22 08:40:08;;;;;;;17.70;15.37;;;;;;;17.46;63.67;99964.28;4942257;28;103036;-70
2021/09/22 08:42:36;;;;;;;13.90;12.63;;;;;;;17.16;63.70;99975.56;4926351;28;103427;-71
2021/09/22 08:45:06;;;;;;;15.53;13.80;;;;;;;17.05;64.73;99967.56;4941878;28;102596;-71
2021/09/22 08:47:36;;;;;;;12.30;11.10;;;;;;;17.55;63.74;99967.06;4938842;28;102867;-71
2021/09/22 08:50:06;;;;;;;15.25;13.57;;;;;;;17.34;61.97;99963.44;4939048;28;103262;-71
2021/09/22 08:52:34;;;;;;;14.35;12.88;;;;;;;18.17;59.29;99963.72;4937764;28;103312;-70
2021/09/22 08:55:05;;;;;;;14.57;13.18;;;;;;;17.69;60.83;99958.78;4936121;28;102894;-70
2021/09/22 08:57:34;;;;;;;15.00;13.50;;;;;;;17.83;59.31;99954.97;4934645;28;102830;-70
2021/09/22 09:00:02;;;;;;;15.13;13.55;;;;;;;17.45;59.76;99959.91;4921776;28;104258;-71
2021/09/22 09:02:39;;;;;;;12.10;10.93;;;;;;;18.73;58.72;99959.78;4936758;28;103382;-67
2021/09/22 09:05:11;;;;;;;13.45;12.13;;;;;;;19.01;56.85;99961.75;4935272;28;102678;-70
2021/09/22 09:07:55;;;;;;;12.90;11.48;;;;;;;18.55;55.88;99953.34;4940242;28;103965;-67
2021/09/22 09:10:26;;;;;;;12.80;11.63;;;;;;;19.15;56.14;99948.97;4939109;28;103285;-67
2021/09/22 09:13:13;;;;;;;10.52;9.52;;;;;;;19.13;54.62;99948.28;4941899;28;103134;-65
2021/09/22 09:15:45;;;;;;;12.98;11.65;;;;;;;18.89;55.62;99957.47;4939469;28;102681;-66
2021/09/22 09:18:18;;;;;;;10.70;9.60;;;;;;;19.89;55.20;99956.56;4940729;28;102905;-66
2021/09/22 09:20:47;;;;;;;12.95;11.73;;;;;;;19.78;55.71;99945.97;4939777;28;103318;-66
2021/09/22 09:23:18;;;;;;;11.40;10.27;;;;;;;19.77;52.00;99949.63;4925216;28;103068;-66
2021/09/22 09:25:56;;;;;;;11.43;9.75;;;;;;;20.20;53.97;99947.38;4923525;28;102702;-71
2021/09/22 09:28:27;;;;;;;10.05;9.05;;;;;;;20.06;53.40;99946.97;4926304;28;103669;-67
2021/09/22 09:30:57;;;;;;;13.35;12.15;;;;;;;17.84;55.42;99944.16;4938771;28;103343;-67
2021/09/22 09:33:36;;;;;;;10.65;9.65;;;;;;;19.00;55.52;99940.47;4940105;28;103238;-68
2021/09/22 09:36:32;;;;;;;11.27;9.05;;;;;;;19.96;51.92;99933.53;4930181;28;102862;-66
2021/09/22 09:39:08;;;;;;;12.05;10.95;;;;;;;19.81;51.59;99924.22;4939420;28;103932;-67
2021/09/22 09:41:39;;;;;;;11.07;10.18;;;;;;;19.46;51.62;99931.91;4938962;28;103789;-68
2021/09/22 09:44:09;;;;;;;7.85;7.15;;;;;;;19.92;51.55;99926.78;4940866;28;103374;-67
2021/09/22 09:46:40;;;;;;;9.93;8.50;;;;;;;19.98;52.11;99925.38;4940891;28;103031;-68
2021/09/22 09:49:12;;;;;;;9.57;8.77;;;;;;;20.33;51.02;99920.28;4940829;28;102740;-67
2021/09/22 09:51:44;;;;;;;8.48;7.68;;;;;;;20.09;51.20;99923.38;4940804;28;104481;-67
2021/09/22 09:54:18;;;;;;;7.95;7.20;;;;;;;20.21;49.46;99924.91;4939932;28;103475;-68
2021/09/22 09:56:48;;;;;;;7.35;6.75;;;;;;;20.24;49.34;99923.78;4930379;28;103298;-68
2021/09/22 09:59:18;;;;;;;10.80;9.30;;;;;;;18.00;52.58;99913.47;4939037;28;104289;-68
2021/09/22 10:01:48;;;;;;;8.52;7.82;;;;;;;17.76;54.85;99916.38;4939386;28;104533;-70
2021/09/22 10:04:19;;;;;;;9.02;8.13;;;;;;;17.65;52.84;99911.91;4928041;28;104233;-70
2021/09/22 10:06:49;;;;;;;6.47;5.97;;;;;;;19.02;52.75;99904.56;4937728;28;103158;-70
2021/09/22 10:09:17;;;;;;;7.78;7.18;;;;;;;18.17;54.09;99905.72;4938412;28;102916;-71
2021/09/22 10:11:48;;;;;;;6.78;6.10;;;;;;;19.39;51.66;99895.94;4939956;28;103205;-70
2021/09/22 10:14:18;;;;;;;6.72;6.13;;;;;;;19.43;52.25;99894.66;4939878;28;103294;-70
2021/09/22 10:16:50;;;;;;;8.68;7.85;;;;;;;18.65;52.25;99895.34;4938645;28;102891;-70
2021/09/22 10:19:21;;;;;;;7.13;6.53;;;;;;;19.50;53.19;99880.59;4930447;28;104144;-70
2021/09/22 10:21:50;;;;;;;7.75;6.97;;;;;;;19.79;49.96;99893.19;4937776;28;104052;-70
2021/09/22 10:24:19;;;;;;;7.43;6.75;;;;;;;20.12;49.44;99884.69;4936986;28;103086;-69
2021/09/22 10:26:47;;;;;;;6.00;5.50;;;;;;;20.53;48.87;99878.16;4934604;28;102696;-70
2021/09/22 10:29:21;;;;;;;7.80;5.55;;;;;;;20.78;50.15;99877.50;4935189;28;102675;-70
2021/09/22 10:31:50;;;;;;;7.03;6.32;;;;;;;20.70;47.60;99877.38;4939846;28;103389;-70
2021/09/22 10:34:31;;;;;;;7.80;7.20;;;;;;;18.23;50.70;99881.13;4943560;28;103214;-70
2021/09/22 10:37:02;;;;;;;6.78;6.18;;;;;;;18.31;52.15;99878.66;4941212;28;102721;-68
2021/09/22 10:39:45;;;;;;;7.25;6.07;;;;;;;19.64;50.74;99884.69;4939743;28;104144;-70
2021/09/22 10:42:24;;;;;;;5.88;5.28;;;;;;;19.82;49.86;99880.31;4940530;28;104054;-70
2021/09/22 10:45:12;;;;;;;6.28;5.68;;;;;;;18.68;50.34;99881.72;4939897;28;103217;-66
2021/09/22 10:47:41;;;;;;;5.18;4.78;;;;;;;19.78;49.79;99876.25;4939561;28;103124;-68
2021/09/22 10:50:50;;;;;;;4.65;4.25;;;;;;;20.38;48.98;99866.19;4941942;28;102711;-68
2021/09/22 10:53:35;;;;;;;6.10;5.32;;;;;;;20.39;47.80;99870.53;4925248;28;103321;-68
2021/09/22 10:56:05;;;;;;;4.45;4.05;;;;;;;21.10;48.58;99867.22;4925326;28;103285;-67
2021/09/22 10:58:36;;;;;;;4.45;3.92;;;;;;;21.33;48.14;99868.47;4937904;28;102603;-68
2021/09/22 11:01:04;;;;;;;6.20;5.47;;;;;;;20.92;48.33;99858.22;4939708;28;103325;-68
2021/09/22 11:03:56;;;;;;;6.32;5.43;;;;;;;19.61;50.66;99866.22;4938733;28;104109;-66
2021/09/22 11:06:58;;;;;;;7.18;5.88;;;;;;;19.43;49.78;99859.81;4927677;28;103060;-68
2021/09/22 11:09:34;;;;;;;6.38;5.28;;;;;;;19.56;51.30;99860.44;4938367;28;102681;-68
2021/09/22 11:12:11;;;;;;;6.00;5.35;;;;;;;19.75;50.23;99863.13;4933908;28;102772;-67
2021/09/22 11:14:43;;;;;;;5.47;5.00;;;;;;;19.21;50.96;99849.31;4938640;28;104164;-68
2021/09/22 11:17:14;;;;;;;8.57;5.20;;;;;;;19.33;51.63;99853.59;4937780;28;103089;-68
2021/09/22 11:19:45;;;;;;;5.32;4.82;;;;;;;19.07;51.93;99848.75;4939000;28;102702;-68
2021/09/22 11:22:17;;;;;;;5.78;5.22;;;;;;;18.77;51.90;99840.75;4937172;28;103970;-68
2021/09/22 11:24:47;;;;;;;4.90;4.40;;;;;;;19.66;52.64;99834.47;4922665;28;103380;-69
2021/09/22 11:27:17;;;;;;;6.65;4.90;;;;;;;19.45;51.87;99836.44;4922689;28;103536;-67
2021/09/22 11:29:48;;;;;;;4.00;3.70;;;;;;;20.76;50.23;99831.16;4939609;28;102620;-68
2021/09/22 11:32:32;;;;;;;5.18;4.13;;;;;;;20.41;50.00;99833.66;4939037;28;102648;-67
2021/09/22 11:35:02;;;;;;;4.50;4.10;;;;;;;21.04;49.17;99819.41;4939471;28;103453;-68
2021/09/22 11:37:35;;;;;;;4.47;3.20;;;;;;;21.98;47.08;99815.31;4929002;28;104299;-68
2021/09/22 11:40:10;;;;;;;5.45;4.90;;;;;;;20.05;49.53;99822.72;4941071;28;102627;-68
2021/09/22 11:42:39;;;;;;;4.93;4.43;;;;;;;19.57;50.20;99820.06;4938607;28;102683;-67
2021/09/22 11:45:09;;;;;;;4.20;3.80;;;;;;;20.39;49.01;99811.50;4938057;28;104185;-67
2021/09/22 11:47:45;;;;;;;5.32;4.72;;;;;;;19.62;49.87;99812.44;4937747;28;103224;-67
2021/09/22 11:50:24;;;;;;;3.95;3.38;;;;;;;20.77;48.28;99806.81;4927567;28;102795;-68